Portada
METAR-TAF:

METAR-TAF

Aeroports :

Emmen, Suïssa

latitud: 47-05-32N, longitud: 8-18-16E, altitud: 426 m

Observació

L'informe es va fer fa 48 minuts, a les 23:50 UTC
Vent calma
Temperatura 19°C
Humitat 94%
Pressió 1021 hPa
Visibilitat 10 km o més

METAR: LSME 182350Z AUTO 00000KT 9999NDV NCD 19/18 Q1021 RMK

Hora: 02:38 (00:38 UTC)


TAF: manca

Observacions i pronòstics meteorològics de més de 4000 aeroports (METAR i TAF).

Les estacions disponibles són els punts grocs i vermells al mapa.

Posi el ratolí al punt desitjat per veure el nom de l'estació.

Feu clic per veure les observacions i els pronòstics meteorològics.

Per canviar el mapa: feu clic els botons verds amb una creu de color negre per apropar; al botó verd amb un guió per allunyar la imatge; o en les fletxes verdes per a mapes adjacents.


METAR-TAF: